createdAt,value
2018-08-16T00:00:51.752Z,17.56
2018-08-16T00:01:51.692Z,17.70
2018-08-16T00:02:51.710Z,17.64
2018-08-16T00:03:51.668Z,17.67
2018-08-16T00:04:51.661Z,17.68
2018-08-16T00:05:51.672Z,17.59
2018-08-16T00:06:51.681Z,17.51
2018-08-16T00:07:51.634Z,17.44
2018-08-16T00:08:51.629Z,17.41
2018-08-16T00:09:51.607Z,17.42
2018-08-16T00:10:51.693Z,17.39
2018-08-16T00:11:51.581Z,17.44
2018-08-16T00:12:51.573Z,17.41
2018-08-16T00:13:51.623Z,17.39
2018-08-16T00:14:51.579Z,17.42
2018-08-16T00:15:51.534Z,17.36
2018-08-16T00:16:51.528Z,17.39
2018-08-16T00:17:51.512Z,17.33
2018-08-16T00:18:51.535Z,17.27
2018-08-16T00:19:51.539Z,17.33
2018-08-16T00:20:51.506Z,17.30
2018-08-16T00:21:51.466Z,17.31
2018-08-16T00:22:51.460Z,17.26
2018-08-16T00:23:51.448Z,17.31
2018-08-16T00:24:51.432Z,17.27
2018-08-16T00:25:51.483Z,17.26
2018-08-16T00:26:51.409Z,17.23
2018-08-16T00:27:51.398Z,17.26
2018-08-16T00:28:51.386Z,17.20
2018-08-16T00:29:51.378Z,17.23
2018-08-16T00:30:51.394Z,17.27
2018-08-16T00:31:51.405Z,17.27
2018-08-16T00:32:51.381Z,17.30
2018-08-16T00:33:51.364Z,17.26
2018-08-16T00:34:51.333Z,17.22
2018-08-16T00:35:51.314Z,17.22
2018-08-16T00:36:51.315Z,17.22
2018-08-16T00:37:51.322Z,17.19
2018-08-16T00:38:51.317Z,17.19
2018-08-16T00:39:51.301Z,17.14
2018-08-16T00:40:51.265Z,17.22
2018-08-16T00:41:51.256Z,17.19
2018-08-16T00:42:51.293Z,17.19
2018-08-16T00:43:51.229Z,17.16
2018-08-16T00:44:51.214Z,17.15
2018-08-16T00:45:51.204Z,17.15
2018-08-16T00:46:51.197Z,17.19
2018-08-16T00:47:51.229Z,17.11
2018-08-16T00:48:51.192Z,17.09
2018-08-16T00:49:51.159Z,17.08
2018-08-16T00:50:51.191Z,17.06
2018-08-16T00:51:51.141Z,17.14
2018-08-16T00:52:51.145Z,17.12
2018-08-16T00:53:51.118Z,17.12
2018-08-16T00:54:51.103Z,17.11
2018-08-16T00:55:51.166Z,17.19
2018-08-16T00:56:51.105Z,17.14
2018-08-16T00:57:51.068Z,17.16
2018-08-16T00:58:51.089Z,17.12
2018-08-16T00:59:51.054Z,17.09
2018-08-16T01:00:51.037Z,17.06
2018-08-16T01:01:51.018Z,17.06
2018-08-16T01:02:51.009Z,17.15
2018-08-16T01:03:51.069Z,17.14
2018-08-16T01:04:50.990Z,17.06
2018-08-16T01:05:50.995Z,17.08
2018-08-16T01:06:50.970Z,17.11
2018-08-16T01:07:50.985Z,17.14
2018-08-16T01:08:50.941Z,17.14
2018-08-16T01:09:50.975Z,17.12
2018-08-16T01:10:50.922Z,17.09
2018-08-16T01:11:50.935Z,17.11
2018-08-16T01:12:50.894Z,17.08
2018-08-16T01:13:50.940Z,17.01
2018-08-16T01:14:50.877Z,16.97
2018-08-16T01:15:51.064Z,16.94
2018-08-16T01:16:50.853Z,16.96
2018-08-16T01:17:50.862Z,16.96
2018-08-16T01:18:50.871Z,16.90
2018-08-16T01:19:50.818Z,16.90
2018-08-16T01:20:50.857Z,16.86
2018-08-16T01:21:50.802Z,16.90
2018-08-16T01:22:50.819Z,16.93
2018-08-16T01:23:50.803Z,16.86
2018-08-16T01:24:50.796Z,16.90
2018-08-16T01:25:51.109Z,16.90
2018-08-16T01:26:50.748Z,16.90
2018-08-16T01:27:50.732Z,16.89
2018-08-16T01:28:50.734Z,16.87
2018-08-16T01:29:50.734Z,16.83
2018-08-16T01:30:50.696Z,16.79
2018-08-16T01:31:50.706Z,16.84
2018-08-16T01:32:50.673Z,16.76
2018-08-16T01:33:50.693Z,16.79
2018-08-16T01:34:50.651Z,16.76
2018-08-16T01:35:50.639Z,16.74
2018-08-16T01:36:50.652Z,16.79
2018-08-16T01:37:50.647Z,16.76
2018-08-16T01:38:50.635Z,16.75
2018-08-16T01:39:50.626Z,16.69
2018-08-16T01:40:50.617Z,16.74
2018-08-16T01:41:50.575Z,16.72
2018-08-16T01:42:50.582Z,16.69
2018-08-16T01:43:50.559Z,16.71
2018-08-16T01:44:50.577Z,16.66
2018-08-16T01:45:50.526Z,16.65
2018-08-16T01:46:50.524Z,16.69
2018-08-16T01:47:50.506Z,16.69
2018-08-16T01:48:50.503Z,16.72
2018-08-16T01:49:50.514Z,16.74
2018-08-16T01:50:50.474Z,16.74
2018-08-16T01:51:50.462Z,16.69
2018-08-16T01:52:50.481Z,16.72
2018-08-16T01:53:50.438Z,16.65
2018-08-16T01:54:50.471Z,16.69
2018-08-16T01:55:50.525Z,16.64
2018-08-16T01:56:50.408Z,16.61
2018-08-16T01:57:50.531Z,16.68
2018-08-16T01:58:50.392Z,16.71
2018-08-16T01:59:50.377Z,16.65
2018-08-16T02:00:50.381Z,16.71
2018-08-16T02:01:50.378Z,16.72
2018-08-16T02:02:57.480Z,16.65
2018-08-16T02:03:50.328Z,16.72
2018-08-16T02:04:50.319Z,16.66
2018-08-16T02:05:50.358Z,16.66
2018-08-16T02:06:50.311Z,16.72
2018-08-16T02:07:50.324Z,16.65
2018-08-16T02:08:50.300Z,16.65
2018-08-16T02:09:50.260Z,16.72
2018-08-16T02:10:50.280Z,16.69
2018-08-16T02:11:50.244Z,16.65
2018-08-16T02:12:50.227Z,16.66
2018-08-16T02:13:50.220Z,16.66
2018-08-16T02:14:50.217Z,16.69
2018-08-16T02:15:50.221Z,16.74
2018-08-16T02:16:50.246Z,16.64
2018-08-16T02:17:50.176Z,16.66
2018-08-16T02:18:50.167Z,16.57
2018-08-16T02:19:50.154Z,16.61
2018-08-16T02:20:50.171Z,16.65
2018-08-16T02:21:50.127Z,16.61
2018-08-16T02:22:50.125Z,16.58
2018-08-16T02:23:50.144Z,16.61
2018-08-16T02:24:50.099Z,16.50
2018-08-16T02:25:50.087Z,16.58
2018-08-16T02:26:50.074Z,16.58
2018-08-16T02:27:50.098Z,16.51
2018-08-16T02:28:50.087Z,16.61
2018-08-16T02:29:50.041Z,16.61
2018-08-16T02:30:50.032Z,16.50
2018-08-16T02:31:50.020Z,16.57
2018-08-16T02:32:50.110Z,16.56
2018-08-16T02:33:49.996Z,16.49
2018-08-16T02:34:50.015Z,16.51
2018-08-16T02:35:50.003Z,16.41
2018-08-16T02:36:49.964Z,16.50
2018-08-16T02:37:49.953Z,16.49
2018-08-16T02:38:49.972Z,16.42
2018-08-16T02:39:49.939Z,16.47
2018-08-16T02:40:49.972Z,16.35
2018-08-16T02:41:49.911Z,16.46
2018-08-16T02:42:49.931Z,16.46
2018-08-16T02:43:49.889Z,16.51
2018-08-16T02:44:49.877Z,16.41
2018-08-16T02:45:49.881Z,16.39
2018-08-16T02:46:49.850Z,16.47
2018-08-16T02:47:49.861Z,16.47
2018-08-16T02:48:49.869Z,16.39
2018-08-16T02:49:49.816Z,16.43
2018-08-16T02:50:49.829Z,16.39
2018-08-16T02:51:49.832Z,16.39
2018-08-16T02:52:49.826Z,16.32
2018-08-16T02:53:49.774Z,16.32
2018-08-16T02:54:49.764Z,16.36
2018-08-16T02:55:49.770Z,16.33
2018-08-16T02:56:49.753Z,16.31
2018-08-16T02:57:49.768Z,16.29
2018-08-16T02:58:49.751Z,16.32
2018-08-16T02:59:49.707Z,16.26
2018-08-16T03:00:49.754Z,16.24
2018-08-16T03:01:49.723Z,16.23
2018-08-16T03:02:49.671Z,16.21
2018-08-16T03:03:49.661Z,16.17
2018-08-16T03:04:50.457Z,16.23
2018-08-16T03:05:49.636Z,16.20
2018-08-16T03:06:49.669Z,16.21
2018-08-16T03:07:49.619Z,16.17
2018-08-16T03:08:49.608Z,16.10
2018-08-16T03:09:49.621Z,16.15
2018-08-16T03:10:49.627Z,16.16
2018-08-16T03:11:49.597Z,16.13
2018-08-16T03:12:49.567Z,16.12
2018-08-16T03:13:49.562Z,16.23
2018-08-16T03:14:49.541Z,16.17
2018-08-16T03:15:49.575Z,16.16
2018-08-16T03:16:49.515Z,16.17
2018-08-16T03:17:49.547Z,16.21
2018-08-16T03:18:49.563Z,16.23
2018-08-16T03:19:49.484Z,16.20
2018-08-16T03:20:49.470Z,16.24
2018-08-16T03:21:49.495Z,16.21
2018-08-16T03:22:49.454Z,16.28
2018-08-16T03:23:49.448Z,16.16
2018-08-16T03:24:49.482Z,16.28
2018-08-16T03:25:49.412Z,16.17
2018-08-16T03:26:49.405Z,16.15
2018-08-16T03:27:49.397Z,16.23
2018-08-16T03:28:49.380Z,16.16
2018-08-16T03:29:49.400Z,16.16
2018-08-16T03:30:49.359Z,16.15
2018-08-16T03:31:49.357Z,16.17
2018-08-16T03:32:49.336Z,16.24
2018-08-16T03:33:49.359Z,16.17
2018-08-16T03:34:49.311Z,16.17
2018-08-16T03:35:49.309Z,16.17
2018-08-16T03:36:49.402Z,16.20
2018-08-16T03:37:49.283Z,16.17
2018-08-16T03:38:49.267Z,16.13
2018-08-16T03:39:49.261Z,16.21
2018-08-16T03:40:49.261Z,16.17
2018-08-16T03:41:49.261Z,16.16
2018-08-16T03:42:49.222Z,16.20
2018-08-16T03:43:49.216Z,16.26
2018-08-16T03:44:49.199Z,16.15
2018-08-16T03:45:49.224Z,16.12
2018-08-16T03:46:49.215Z,16.13
2018-08-16T03:47:49.175Z,16.17
2018-08-16T03:48:49.157Z,16.17
2018-08-16T03:49:49.145Z,16.08
2018-08-16T03:50:49.135Z,16.13
2018-08-16T03:51:49.163Z,16.13
2018-08-16T03:52:49.928Z,16.12
2018-08-16T03:53:49.131Z,16.17
2018-08-16T03:54:49.108Z,16.02
2018-08-16T03:55:49.100Z,16.10
2018-08-16T03:56:49.123Z,16.04
2018-08-16T03:57:49.064Z,16.10
2018-08-16T03:58:49.050Z,16.08
2018-08-16T03:59:49.032Z,16.08
2018-08-16T04:00:49.028Z,16.02
2018-08-16T04:01:49.066Z,16.08
2018-08-16T04:02:49.005Z,16.01
2018-08-16T04:03:48.992Z,16.01
2018-08-16T04:04:48.976Z,16.09
2018-08-16T04:05:48.963Z,16.04
2018-08-16T04:06:48.992Z,16.04
2018-08-16T04:07:48.976Z,16.04
2018-08-16T04:08:48.932Z,16.04
2018-08-16T04:09:48.919Z,16.05
2018-08-16T04:10:48.916Z,16.04
2018-08-16T04:11:48.922Z,16.04
2018-08-16T04:12:48.915Z,15.91
2018-08-16T04:13:48.887Z,15.95
2018-08-16T04:14:48.875Z,15.95
2018-08-16T04:15:48.855Z,16.01
2018-08-16T04:16:48.967Z,15.95
2018-08-16T04:17:48.831Z,15.98
2018-08-16T04:18:48.822Z,16.02
2018-08-16T04:19:48.823Z,15.98
2018-08-16T04:20:48.803Z,16.05
2018-08-16T04:21:48.818Z,16.00
2018-08-16T04:22:48.780Z,16.01
2018-08-16T04:23:48.769Z,16.02
2018-08-16T04:24:48.755Z,15.98
2018-08-16T04:25:48.781Z,16.08
2018-08-16T04:26:48.729Z,16.05
2018-08-16T04:27:48.718Z,16.04
2018-08-16T04:28:48.736Z,16.05
2018-08-16T04:29:48.737Z,16.09
2018-08-16T04:30:48.687Z,15.98
2018-08-16T04:31:48.679Z,16.09
2018-08-16T04:32:48.782Z,16.08
2018-08-16T04:33:48.660Z,16.05
2018-08-16T04:34:48.644Z,16.08
2018-08-16T04:35:48.675Z,16.09
2018-08-16T04:36:48.628Z,16.16
2018-08-16T04:37:48.617Z,16.13
2018-08-16T04:38:48.601Z,16.16
2018-08-16T04:39:48.615Z,16.21
2018-08-16T04:40:48.604Z,16.21
2018-08-16T04:41:48.748Z,16.17
2018-08-16T04:42:48.551Z,16.20
2018-08-16T04:43:48.541Z,16.24
2018-08-16T04:44:48.528Z,16.31
2018-08-16T04:45:48.549Z,16.35
2018-08-16T04:46:48.540Z,16.39
2018-08-16T04:47:48.495Z,16.36
2018-08-16T04:48:48.500Z,16.42
2018-08-16T04:49:48.474Z,16.47
2018-08-16T04:50:48.497Z,16.49
2018-08-16T04:51:48.513Z,16.46
2018-08-16T04:52:48.442Z,16.54
2018-08-16T04:53:48.430Z,16.46
2018-08-16T04:54:48.425Z,16.56
2018-08-16T04:55:48.409Z,16.56
2018-08-16T04:56:48.457Z,16.56
2018-08-16T04:57:48.384Z,16.60
2018-08-16T04:58:48.378Z,16.65
2018-08-16T04:59:48.366Z,16.65
2018-08-16T05:00:48.361Z,16.65
2018-08-16T05:01:48.378Z,16.60
2018-08-16T05:02:48.347Z,16.65
2018-08-16T05:03:48.322Z,16.72
2018-08-16T05:04:48.354Z,16.66
2018-08-16T05:05:48.295Z,16.74
2018-08-16T05:06:48.292Z,16.68
2018-08-16T05:07:48.275Z,16.64
2018-08-16T05:08:48.266Z,16.72
2018-08-16T05:09:48.285Z,16.68
2018-08-16T05:10:48.250Z,16.74
2018-08-16T05:11:48.275Z,16.78
2018-08-16T05:12:48.299Z,16.79
2018-08-16T05:13:48.210Z,16.84
2018-08-16T05:14:48.201Z,16.86
2018-08-16T05:15:48.220Z,16.89
2018-08-16T05:16:48.175Z,16.90
2018-08-16T05:17:48.205Z,16.90
2018-08-16T05:18:48.150Z,16.86
2018-08-16T05:19:48.152Z,16.97
2018-08-16T05:20:48.128Z,17.02
2018-08-16T05:21:48.154Z,17.06
2018-08-16T05:22:48.109Z,16.97
2018-08-16T05:23:49.037Z,17.01
2018-08-16T05:24:48.087Z,17.06
2018-08-16T05:25:48.083Z,17.02
2018-08-16T05:26:48.095Z,17.09
2018-08-16T05:27:48.085Z,17.09
2018-08-16T05:28:48.039Z,17.14
2018-08-16T05:29:48.036Z,17.20
2018-08-16T05:30:48.145Z,17.20
2018-08-16T05:31:48.105Z,17.23
2018-08-16T05:32:47.998Z,17.29
2018-08-16T05:33:47.986Z,17.34
2018-08-16T05:34:47.975Z,17.26
2018-08-16T05:35:48.000Z,17.31
2018-08-16T05:36:47.956Z,17.36
2018-08-16T05:37:47.942Z,17.42
2018-08-16T05:38:47.936Z,17.44
2018-08-16T05:39:47.921Z,17.44
2018-08-16T05:40:47.934Z,17.64
2018-08-16T05:41:47.891Z,17.57
2018-08-16T05:42:47.923Z,17.60
2018-08-16T05:43:47.872Z,17.70
2018-08-16T05:44:47.859Z,17.65
2018-08-16T05:45:47.846Z,17.79
2018-08-16T05:46:47.838Z,17.72
2018-08-16T05:47:47.908Z,17.74
2018-08-16T05:48:47.813Z,17.82
2018-08-16T05:49:47.800Z,17.86
2018-08-16T05:50:47.840Z,17.87
2018-08-16T05:51:47.779Z,17.95
2018-08-16T05:52:47.795Z,17.86
2018-08-16T05:53:47.764Z,17.85
2018-08-16T05:54:47.750Z,17.95
2018-08-16T05:55:47.759Z,17.98
2018-08-16T05:56:47.725Z,17.97
2018-08-16T05:57:47.754Z,18.00
2018-08-16T05:58:47.733Z,18.03
2018-08-16T05:59:47.696Z,18.03
2018-08-16T06:00:47.722Z,18.03
2018-08-16T06:01:47.667Z,18.08
2018-08-16T06:02:47.667Z,18.04
2018-08-16T06:03:47.653Z,18.05
2018-08-16T06:04:47.669Z,18.15
2018-08-16T06:05:47.630Z,18.19
2018-08-16T06:06:47.612Z,18.19
2018-08-16T06:07:47.612Z,18.16
2018-08-16T06:08:47.590Z,18.28
2018-08-16T06:09:47.607Z,18.28
2018-08-16T06:10:47.579Z,18.31
2018-08-16T06:11:47.558Z,18.25
2018-08-16T06:12:47.557Z,18.29
2018-08-16T06:13:47.548Z,18.29
2018-08-16T06:14:47.549Z,18.28
2018-08-16T06:15:47.522Z,18.41
2018-08-16T06:16:47.529Z,18.34
2018-08-16T06:17:47.494Z,18.33
2018-08-16T06:18:47.481Z,18.35
2018-08-16T06:19:47.469Z,18.29
2018-08-16T06:20:47.489Z,18.35
2018-08-16T06:21:47.449Z,18.41
2018-08-16T06:22:47.438Z,18.50
2018-08-16T06:23:47.456Z,18.47
2018-08-16T06:24:47.412Z,18.53
2018-08-16T06:25:47.431Z,18.52
2018-08-16T06:26:47.388Z,18.55
2018-08-16T06:27:47.463Z,18.55
2018-08-16T06:28:47.369Z,18.56
2018-08-16T06:29:47.389Z,18.63
2018-08-16T06:30:47.379Z,18.65
2018-08-16T06:31:47.358Z,18.74
2018-08-16T06:32:47.318Z,18.74
2018-08-16T06:33:47.313Z,18.74
2018-08-16T06:34:47.301Z,18.73
2018-08-16T06:35:47.330Z,18.81
2018-08-16T06:36:47.280Z,18.83
2018-08-16T06:37:47.266Z,18.84
2018-08-16T06:38:47.321Z,18.84
2018-08-16T06:39:47.254Z,18.88
2018-08-16T06:40:47.272Z,18.81
2018-08-16T06:41:47.219Z,18.93
2018-08-16T06:42:47.213Z,18.84
2018-08-16T06:43:47.194Z,18.90
2018-08-16T06:44:47.186Z,18.96
2018-08-16T06:45:47.200Z,18.96
2018-08-16T06:46:47.161Z,18.95
2018-08-16T06:47:47.153Z,19.00
2018-08-16T06:48:47.137Z,18.98
2018-08-16T06:49:47.175Z,18.99
2018-08-16T06:50:47.131Z,19.14
2018-08-16T06:51:47.142Z,19.15
2018-08-16T06:52:47.131Z,19.19
2018-08-16T06:53:47.084Z,19.08
2018-08-16T06:54:47.135Z,19.18
2018-08-16T06:55:47.067Z,19.16
2018-08-16T06:56:47.053Z,19.19
2018-08-16T06:57:47.044Z,19.34
2018-08-16T06:58:47.034Z,19.29
2018-08-16T06:59:47.058Z,19.40
2018-08-16T07:00:47.070Z,19.37
2018-08-16T07:01:47.004Z,19.47
2018-08-16T07:02:46.982Z,19.52
2018-08-16T07:03:46.970Z,19.59
2018-08-16T07:04:47.052Z,19.54
2018-08-16T07:05:46.953Z,19.67
2018-08-16T07:06:46.961Z,19.71
2018-08-16T07:07:46.927Z,19.63
2018-08-16T07:08:46.956Z,19.63
2018-08-16T07:09:46.907Z,19.74
2018-08-16T07:10:46.919Z,19.81
2018-08-16T07:11:46.890Z,19.76
2018-08-16T07:12:46.904Z,19.85
2018-08-16T07:13:46.864Z,19.81
2018-08-16T07:14:46.847Z,19.73
2018-08-16T07:15:46.866Z,19.77
2018-08-16T07:16:46.821Z,19.82
2018-08-16T07:17:46.866Z,19.86
2018-08-16T07:18:46.855Z,19.85
2018-08-16T07:19:46.789Z,19.86
2018-08-16T07:20:46.780Z,19.94
2018-08-16T07:21:46.766Z,19.94
2018-08-16T07:22:46.797Z,19.91
2018-08-16T07:23:46.742Z,20.06
2018-08-16T07:24:46.801Z,20.06
2018-08-16T07:25:46.748Z,20.11
2018-08-16T07:26:46.714Z,20.09
2018-08-16T07:27:46.704Z,20.11
2018-08-16T07:28:46.693Z,20.11
2018-08-16T07:29:46.707Z,20.13
2018-08-16T07:30:46.702Z,20.21
2018-08-16T07:31:46.667Z,20.10
2018-08-16T07:32:46.672Z,20.24
2018-08-16T07:33:46.630Z,20.29
2018-08-16T07:34:46.620Z,20.37
2018-08-16T07:35:46.652Z,20.47
2018-08-16T07:36:46.616Z,20.40
2018-08-16T07:37:46.600Z,20.41
2018-08-16T07:38:46.581Z,20.59
2018-08-16T07:39:46.566Z,20.50
2018-08-16T07:40:46.613Z,20.52
2018-08-16T07:41:46.545Z,20.50
2018-08-16T07:42:46.541Z,20.51
2018-08-16T07:43:46.526Z,20.51
2018-08-16T07:44:46.524Z,20.48
2018-08-16T07:45:46.661Z,20.47
2018-08-16T07:46:46.497Z,20.50
2018-08-16T07:47:46.985Z,20.56
2018-08-16T07:48:46.472Z,20.47
2018-08-16T07:49:46.460Z,20.55
2018-08-16T07:50:46.501Z,20.50
2018-08-16T07:51:46.594Z,20.48
2018-08-16T07:52:46.425Z,20.55
2018-08-16T07:53:46.415Z,20.63
2018-08-16T07:54:46.432Z,20.52
2018-08-16T07:55:47.025Z,20.69
2018-08-16T07:56:46.374Z,20.66
2018-08-16T07:57:46.368Z,20.66
2018-08-16T07:58:46.357Z,20.67
2018-08-16T07:59:46.388Z,20.67
2018-08-16T08:00:46.341Z,20.72
2018-08-16T08:01:46.352Z,20.70
2018-08-16T08:02:46.335Z,20.66
2018-08-16T08:03:46.415Z,20.67
2018-08-16T08:04:46.295Z,20.69
2018-08-16T08:05:46.277Z,20.77
2018-08-16T08:06:46.291Z,20.78
2018-08-16T08:07:46.256Z,20.80
2018-08-16T08:08:46.326Z,20.82
2018-08-16T08:09:46.282Z,20.81
2018-08-16T08:10:46.228Z,20.92
2018-08-16T08:11:46.212Z,20.84
2018-08-16T08:12:46.203Z,20.78
2018-08-16T08:13:46.240Z,20.88
2018-08-16T08:14:46.188Z,20.93
2018-08-16T08:15:46.168Z,20.96
2018-08-16T08:16:46.155Z,20.95
2018-08-16T08:17:46.143Z,21.11
2018-08-16T08:18:46.168Z,21.07
2018-08-16T08:19:46.117Z,21.05
2018-08-16T08:20:46.136Z,21.05
2018-08-16T08:21:46.101Z,21.05
2018-08-16T08:22:46.086Z,21.12
2018-08-16T08:23:46.112Z,21.18
2018-08-16T08:24:46.070Z,21.21
2018-08-16T08:25:46.119Z,21.20
2018-08-16T08:26:46.072Z,21.20
2018-08-16T08:27:46.135Z,21.17
2018-08-16T08:28:46.020Z,21.14
2018-08-16T08:29:46.019Z,21.07
2018-08-16T08:30:46.030Z,21.07
2018-08-16T08:31:46.135Z,21.12
2018-08-16T08:32:45.978Z,21.02
2018-08-16T08:33:45.966Z,21.07
2018-08-16T08:34:45.970Z,21.17
2018-08-16T08:35:45.983Z,21.17
2018-08-16T08:36:45.932Z,21.15
2018-08-16T08:37:45.937Z,21.25
2018-08-16T08:38:46.001Z,21.29
2018-08-16T08:39:45.902Z,21.32
2018-08-16T08:40:45.880Z,21.30
2018-08-16T08:41:45.877Z,21.37
2018-08-16T08:42:45.860Z,21.39
2018-08-16T08:43:45.971Z,21.48
2018-08-16T08:44:45.843Z,21.42
2018-08-16T08:45:45.866Z,21.52
2018-08-16T08:46:45.825Z,21.54
2018-08-16T08:47:45.851Z,21.66
2018-08-16T08:48:45.799Z,21.67
2018-08-16T08:49:45.784Z,21.73
2018-08-16T08:50:45.773Z,21.70
2018-08-16T08:51:45.762Z,21.73
2018-08-16T08:52:45.795Z,21.76
2018-08-16T08:53:45.746Z,21.73
2018-08-16T08:54:45.730Z,21.62
2018-08-16T08:55:45.715Z,21.69
2018-08-16T08:56:45.733Z,21.66
2018-08-16T08:57:45.694Z,21.72
2018-08-16T08:58:45.687Z,21.73
2018-08-16T08:59:45.673Z,21.72
2018-08-16T09:00:45.694Z,21.77
2018-08-16T09:01:45.648Z,21.88
2018-08-16T09:02:45.648Z,21.99
2018-08-16T09:03:45.629Z,22.00
2018-08-16T09:04:45.624Z,21.98
2018-08-16T09:05:45.649Z,22.08
2018-08-16T09:06:45.598Z,22.11
2018-08-16T09:07:45.603Z,22.11
2018-08-16T09:08:45.574Z,22.10
2018-08-16T09:09:45.565Z,22.13
2018-08-16T09:10:45.611Z,22.18
2018-08-16T09:11:45.541Z,22.15
2018-08-16T09:12:45.532Z,22.17
2018-08-16T09:13:45.572Z,22.28
2018-08-16T09:14:45.532Z,22.28
2018-08-16T09:15:45.529Z,22.25
2018-08-16T09:16:45.489Z,22.32
2018-08-16T09:17:45.474Z,22.32
2018-08-16T09:18:45.462Z,22.44
2018-08-16T09:19:45.479Z,22.50
2018-08-16T09:20:45.438Z,22.60
2018-08-16T09:21:45.483Z,22.63
2018-08-16T09:22:45.431Z,22.62
2018-08-16T09:23:45.406Z,22.62
2018-08-16T09:24:45.401Z,22.68
2018-08-16T09:25:45.393Z,22.66
2018-08-16T09:26:45.415Z,22.62
2018-08-16T09:27:45.372Z,22.66
2018-08-16T09:28:45.356Z,22.75
2018-08-16T09:29:45.394Z,22.83
2018-08-16T09:30:45.332Z,22.83
2018-08-16T09:31:45.408Z,22.81
2018-08-16T09:32:45.304Z,22.96
2018-08-16T09:33:45.299Z,22.93
2018-08-16T09:34:45.318Z,23.00
2018-08-16T09:35:45.311Z,23.03
2018-08-16T09:36:45.264Z,23.09
2018-08-16T09:37:45.257Z,23.02
2018-08-16T09:38:45.243Z,23.10
2018-08-16T09:39:45.276Z,23.00
2018-08-16T09:40:45.260Z,22.96
2018-08-16T09:41:45.210Z,22.88
2018-08-16T09:42:45.201Z,22.88
2018-08-16T09:43:45.186Z,22.81
2018-08-16T09:44:45.171Z,22.81
2018-08-16T09:45:45.255Z,22.73
2018-08-16T09:46:45.148Z,22.62
2018-08-16T09:47:45.140Z,22.68
2018-08-16T09:48:45.126Z,22.66
2018-08-16T09:49:45.165Z,22.70
2018-08-16T09:50:45.101Z,22.60
2018-08-16T09:51:45.227Z,22.68
2018-08-16T09:52:45.116Z,22.69
2018-08-16T09:53:45.116Z,22.80
2018-08-16T09:54:45.059Z,22.83
2018-08-16T09:55:45.081Z,22.80
2018-08-16T09:56:45.034Z,22.80
2018-08-16T09:57:45.023Z,22.81
2018-08-16T09:58:45.053Z,22.80
2018-08-16T09:59:45.006Z,22.91
2018-08-16T10:00:45.029Z,22.87
2018-08-16T10:01:44.982Z,22.99
2018-08-16T10:02:45.008Z,22.99
2018-08-16T10:03:45.047Z,22.98
2018-08-16T10:04:44.951Z,23.00
2018-08-16T10:05:44.944Z,22.99
2018-08-16T10:06:44.926Z,23.06
2018-08-16T10:07:44.944Z,23.08
2018-08-16T10:08:44.904Z,23.09
2018-08-16T10:09:44.894Z,23.12
2018-08-16T10:10:44.886Z,23.13
2018-08-16T10:11:44.868Z,23.24
2018-08-16T10:12:44.888Z,23.32
2018-08-16T10:13:44.851Z,23.31
2018-08-16T10:14:44.835Z,23.25
2018-08-16T10:15:44.828Z,23.34
2018-08-16T10:16:44.846Z,23.28
2018-08-16T10:17:44.836Z,23.48
2018-08-16T10:18:44.827Z,23.51
2018-08-16T10:19:44.774Z,23.58
2018-08-16T10:20:44.793Z,23.68
2018-08-16T10:21:44.756Z,23.80
2018-08-16T10:22:44.804Z,23.81
2018-08-16T10:23:44.738Z,23.93
2018-08-16T10:24:44.767Z,23.92
2018-08-16T10:25:44.711Z,23.91
2018-08-16T10:26:44.701Z,23.98
2018-08-16T10:27:44.695Z,23.95
2018-08-16T10:28:44.709Z,23.98
2018-08-16T10:29:44.701Z,23.91
2018-08-16T10:30:44.660Z,23.98
2018-08-16T10:31:44.652Z,23.93
2018-08-16T10:32:44.647Z,23.96
2018-08-16T10:33:44.668Z,23.91
2018-08-16T10:34:44.622Z,23.88
2018-08-16T10:35:44.625Z,23.95
2018-08-16T10:36:44.598Z,23.98
2018-08-16T10:37:44.628Z,24.03
2018-08-16T10:38:44.636Z,24.20
2018-08-16T10:39:44.567Z,24.13
2018-08-16T10:40:44.556Z,24.17
2018-08-16T10:41:44.545Z,24.21
2018-08-16T10:42:44.560Z,24.28
2018-08-16T10:43:44.511Z,24.35
2018-08-16T10:44:44.542Z,24.40
2018-08-16T10:45:44.494Z,24.39
2018-08-16T10:46:44.489Z,24.42
2018-08-16T10:47:44.466Z,24.45
2018-08-16T10:48:44.459Z,24.50
2018-08-16T10:49:44.482Z,24.54
2018-08-16T10:50:44.440Z,24.51
2018-08-16T10:51:44.435Z,24.53
2018-08-16T10:52:44.413Z,24.57
2018-08-16T10:53:44.426Z,24.53
2018-08-16T10:54:44.415Z,24.63
2018-08-16T10:55:44.386Z,24.39
2018-08-16T10:56:44.376Z,24.42
2018-08-16T10:57:44.389Z,24.48
2018-08-16T10:58:44.348Z,24.53
2018-08-16T10:59:44.346Z,24.50
2018-08-16T11:00:44.327Z,24.45
2018-08-16T11:01:44.320Z,24.54
2018-08-16T11:02:44.342Z,24.60
2018-08-16T11:03:44.297Z,24.74
2018-08-16T11:04:44.277Z,24.68
2018-08-16T11:05:44.269Z,24.74
2018-08-16T11:06:44.267Z,24.76
2018-08-16T11:07:44.288Z,24.70
2018-08-16T11:08:44.250Z,24.69
2018-08-16T11:09:44.225Z,24.74
2018-08-16T11:10:44.272Z,24.88
2018-08-16T11:11:44.397Z,24.93
2018-08-16T11:12:44.221Z,24.95
2018-08-16T11:13:44.186Z,24.91
2018-08-16T11:14:44.171Z,24.92
2018-08-16T11:15:44.164Z,25.07
2018-08-16T11:16:44.200Z,25.03
2018-08-16T11:17:44.138Z,24.96
2018-08-16T11:18:44.160Z,24.99
2018-08-16T11:19:44.121Z,25.07
2018-08-16T11:20:44.103Z,25.01
2018-08-16T11:21:44.131Z,25.08
2018-08-16T11:22:44.155Z,25.06
2018-08-16T11:23:44.069Z,25.13
2018-08-16T11:24:44.059Z,25.04
2018-08-16T11:25:44.048Z,25.06
2018-08-16T11:26:44.075Z,25.13
2018-08-16T11:27:44.033Z,25.08
2018-08-16T11:28:44.025Z,25.16
2018-08-16T11:29:44.004Z,25.10
2018-08-16T11:30:44.560Z,25.13
2018-08-16T11:31:44.011Z,25.22
2018-08-16T11:32:43.972Z,25.23
2018-08-16T11:33:44.001Z,25.32
2018-08-16T11:34:43.958Z,25.32
2018-08-16T11:35:43.951Z,25.41
2018-08-16T11:36:43.964Z,25.46
2018-08-16T11:37:43.979Z,25.40
2018-08-16T11:38:43.903Z,25.35
2018-08-16T11:39:43.990Z,25.43
2018-08-16T11:40:43.982Z,25.40
2018-08-16T11:41:43.870Z,25.35
2018-08-16T11:42:43.876Z,25.36
2018-08-16T11:43:43.881Z,25.35
2018-08-16T11:44:43.880Z,25.31
2018-08-16T11:45:43.828Z,25.28
2018-08-16T11:46:43.973Z,25.23
2018-08-16T11:47:43.809Z,25.21
2018-08-16T11:48:43.852Z,25.22
2018-08-16T11:49:43.786Z,25.23
2018-08-16T11:50:43.767Z,25.23
2018-08-16T11:51:43.776Z,25.26
2018-08-16T11:52:43.752Z,25.31
2018-08-16T11:53:43.773Z,25.35
2018-08-16T11:54:43.763Z,25.35
2018-08-16T11:55:43.714Z,25.29
2018-08-16T11:56:43.710Z,25.47
2018-08-16T11:57:43.731Z,25.46
2018-08-16T11:58:43.729Z,25.40
2018-08-16T11:59:43.696Z,25.46
2018-08-16T12:00:43.699Z,25.50
2018-08-16T12:01:43.654Z,25.54
2018-08-16T12:02:43.648Z,25.58
2018-08-16T12:03:43.648Z,25.58
2018-08-16T12:04:43.660Z,25.65
2018-08-16T12:05:43.649Z,25.63
2018-08-16T12:06:43.601Z,25.65
2018-08-16T12:07:43.590Z,25.65
2018-08-16T12:08:43.575Z,25.65
2018-08-16T12:09:43.571Z,25.63
2018-08-16T12:10:43.592Z,25.72
2018-08-16T12:11:43.544Z,25.72
2018-08-16T12:12:43.537Z,25.69
2018-08-16T12:13:43.517Z,25.72
2018-08-16T12:14:43.686Z,25.69
2018-08-16T12:15:43.551Z,25.85
2018-08-16T12:16:43.489Z,25.77
2018-08-16T12:17:43.521Z,25.84
2018-08-16T12:18:43.477Z,25.93
2018-08-16T12:19:43.457Z,25.85
2018-08-16T12:20:43.445Z,25.90
2018-08-16T12:21:43.437Z,25.93
2018-08-16T12:22:43.455Z,25.88
2018-08-16T12:23:43.416Z,25.84
2018-08-16T12:24:43.401Z,25.87
2018-08-16T12:25:43.392Z,25.87
2018-08-16T12:26:43.421Z,25.84
2018-08-16T12:27:43.378Z,25.84
2018-08-16T12:28:43.356Z,25.87
2018-08-16T12:29:43.347Z,25.87
2018-08-16T12:30:43.352Z,25.96
2018-08-16T12:31:43.357Z,25.99
2018-08-16T12:32:43.366Z,26.00
2018-08-16T12:33:43.305Z,26.03
2018-08-16T12:34:43.298Z,26.19
2018-08-16T12:35:43.282Z,26.33
2018-08-16T12:36:43.272Z,26.55
2018-08-16T12:37:43.337Z,26.70
2018-08-16T12:38:43.280Z,26.88
2018-08-16T12:39:43.241Z,26.97
2018-08-16T12:40:43.298Z,27.17
2018-08-16T12:41:43.211Z,27.30
2018-08-16T12:42:43.241Z,27.45
2018-08-16T12:43:43.197Z,27.65
2018-08-16T12:44:43.215Z,27.75
2018-08-16T12:45:44.117Z,27.96
2018-08-16T12:46:43.177Z,28.05
2018-08-16T12:47:43.185Z,28.12
2018-08-16T12:48:43.138Z,28.29
2018-08-16T12:49:43.161Z,28.30
2018-08-16T12:50:43.120Z,28.35
2018-08-16T12:51:43.108Z,28.37
2018-08-16T12:52:43.100Z,28.49